createdAt,value
2018-04-13T00:15:43.037Z,0.50
2018-04-13T00:16:45.358Z,0.40
2018-04-13T00:17:48.022Z,0.30
2018-04-13T00:18:49.580Z,0.30
2018-04-13T00:19:51.067Z,0.30
2018-04-13T00:20:52.787Z,0.20
2018-04-13T00:21:54.633Z,0.40
2018-04-13T00:22:56.158Z,0.40
2018-04-13T00:23:58.979Z,0.23
2018-04-13T00:25:00.649Z,0.30
2018-04-13T00:26:02.212Z,0.87
2018-04-13T00:27:03.909Z,0.50
2018-04-13T00:28:06.134Z,0.70
2018-04-13T00:29:07.648Z,0.80
2018-04-13T00:30:09.145Z,0.90
2018-04-13T00:31:10.661Z,0.60
2018-04-13T00:32:13.661Z,0.20
2018-04-13T00:33:37.563Z,0.27
2018-04-13T00:34:39.029Z,0.40
2018-04-13T00:35:42.260Z,0.30
2018-04-13T00:36:44.935Z,0.30
2018-04-13T00:37:47.969Z,0.20
2018-04-13T00:38:49.437Z,0.30
2018-04-13T00:39:50.955Z,0.40
2018-04-13T00:40:52.555Z,0.30
2018-04-13T00:41:54.112Z,0.30
2018-04-13T00:42:55.705Z,0.30
2018-04-13T00:43:57.257Z,0.30
2018-04-13T00:44:58.843Z,0.30
2018-04-13T00:46:00.407Z,0.40
2018-04-13T00:47:02.638Z,0.30
2018-04-13T00:48:05.355Z,0.40
2018-04-13T00:49:06.852Z,0.40
2018-04-13T00:50:08.311Z,0.40
2018-04-13T00:51:10.956Z,0.40
2018-04-13T00:52:12.453Z,0.30
2018-04-13T00:53:27.997Z,0.37
2018-04-13T00:54:29.529Z,0.30
2018-04-13T00:55:31.067Z,0.50
2018-04-13T00:56:32.617Z,0.60
2018-04-13T00:57:34.198Z,0.40
2018-04-13T00:58:35.967Z,0.40
2018-04-13T00:59:37.456Z,0.30
2018-04-13T01:00:39.802Z,0.40
2018-04-13T01:01:41.387Z,0.40
2018-04-13T01:02:42.897Z,0.30
2018-04-13T01:03:44.665Z,0.37
2018-04-13T01:04:46.228Z,0.30
2018-04-13T01:05:47.833Z,0.40
2018-04-13T01:06:50.226Z,0.30
2018-04-13T01:07:51.788Z,0.40
2018-04-13T01:08:53.620Z,0.63
2018-04-13T01:09:55.400Z,0.40
2018-04-13T01:10:57.636Z,0.60
2018-04-13T01:11:59.194Z,0.40
2018-04-13T01:13:00.777Z,0.40
2018-04-13T01:14:02.660Z,0.40
2018-04-13T01:15:04.192Z,0.30
2018-04-13T01:16:05.716Z,0.30
2018-04-13T01:17:07.190Z,0.30
2018-04-13T01:18:08.674Z,0.30
2018-04-13T01:19:10.210Z,0.40
2018-04-13T01:20:11.696Z,0.27
2018-04-13T01:21:13.920Z,0.30
2018-04-13T01:22:17.080Z,0.33
2018-04-13T01:23:18.578Z,0.50
2018-04-13T01:24:20.414Z,0.40
2018-04-13T01:25:22.663Z,0.43
2018-04-13T01:26:24.213Z,0.30
2018-04-13T01:27:25.704Z,0.40
2018-04-13T01:28:27.974Z,0.30
2018-04-13T01:29:29.526Z,0.30
2018-04-13T01:30:31.140Z,0.30
2018-04-13T01:31:32.692Z,0.30
2018-04-13T01:32:34.972Z,0.30
2018-04-13T01:33:36.463Z,0.40
2018-04-13T01:34:38.750Z,0.30
2018-04-13T01:35:40.998Z,0.40
2018-04-13T01:36:42.505Z,0.23
2018-04-13T01:37:44.807Z,0.37
2018-04-13T01:38:46.324Z,0.40
2018-04-13T01:39:48.195Z,0.40
2018-04-13T01:40:50.899Z,0.40
2018-04-13T01:41:52.423Z,0.40
2018-04-13T01:42:54.709Z,0.30
2018-04-13T01:43:56.249Z,0.40
2018-04-13T01:44:59.314Z,0.40
2018-04-13T01:46:02.566Z,0.50
2018-04-13T01:47:04.100Z,0.30
2018-04-13T01:48:07.276Z,0.33
2018-04-13T01:49:09.545Z,0.40
2018-04-13T01:50:12.076Z,0.43
2018-04-13T01:51:13.576Z,0.43
2018-04-13T01:52:15.792Z,0.40
2018-04-13T01:53:17.266Z,0.30
2018-04-13T01:54:18.777Z,0.33
2018-04-13T01:55:20.319Z,0.30
2018-04-13T01:56:23.481Z,0.57
2018-04-13T01:57:24.968Z,0.40
2018-04-13T01:58:26.475Z,0.30
2018-04-13T01:59:28.064Z,0.37
2018-04-13T02:00:31.474Z,0.40
2018-04-13T02:01:33.198Z,0.30
2018-04-13T02:02:35.447Z,0.47
2018-04-13T02:03:38.030Z,0.50
2018-04-13T02:04:39.501Z,0.43
2018-04-13T02:05:41.052Z,0.50
2018-04-13T02:06:42.528Z,0.40
2018-04-13T02:07:45.814Z,0.50
2018-04-13T02:08:48.044Z,0.50
2018-04-13T02:11:38.370Z,0.57
2018-04-13T02:12:39.890Z,0.50
2018-04-13T02:13:41.481Z,0.40
2018-04-13T02:14:43.019Z,0.40
2018-04-13T02:15:44.577Z,0.30
2018-04-13T02:16:46.381Z,0.40
2018-04-13T02:17:49.420Z,0.30
2018-04-13T02:18:50.905Z,0.33
2018-04-13T02:19:52.348Z,0.37
2018-04-13T02:20:53.753Z,0.30
2018-04-13T02:21:55.294Z,0.30
2018-04-13T02:22:58.740Z,0.30
2018-04-13T02:24:00.207Z,0.30
2018-04-13T02:25:01.728Z,0.30
2018-04-13T02:26:03.295Z,0.30
2018-04-13T02:27:04.997Z,0.30
2018-04-13T02:28:08.134Z,0.30
2018-04-13T02:29:09.574Z,0.20
2018-04-13T02:30:11.032Z,0.30
2018-04-13T02:31:12.482Z,0.30
2018-04-13T02:32:13.882Z,0.20
2018-04-13T02:33:16.045Z,0.30
2018-04-13T02:34:18.916Z,0.40
2018-04-13T02:35:21.098Z,0.20
2018-04-13T02:36:24.214Z,0.30
2018-04-13T02:37:25.852Z,0.30
2018-04-13T02:38:28.777Z,0.20
2018-04-13T02:39:30.241Z,0.30
2018-04-13T02:40:31.751Z,0.40
2018-04-13T02:41:33.946Z,0.30
2018-04-13T02:42:36.772Z,0.30
2018-04-13T02:43:38.203Z,0.30
2018-04-13T02:44:39.685Z,0.30
2018-04-13T02:45:41.177Z,0.27
2018-04-13T02:46:42.649Z,0.30
2018-04-13T02:47:44.391Z,0.40
2018-04-13T02:48:45.836Z,0.30
2018-04-13T03:21:46.594Z,0.43
2018-04-13T03:22:48.915Z,0.77
2018-04-13T03:24:25.380Z,0.60
2018-04-13T03:25:27.618Z,0.50
2018-04-13T03:26:29.170Z,0.53
2018-04-13T03:27:30.632Z,0.50
2018-04-13T03:28:34.106Z,0.60
2018-04-13T03:29:36.403Z,0.60
2018-04-13T03:30:38.034Z,0.50
2018-04-13T03:35:37.767Z,0.60
2018-04-13T03:36:40.019Z,0.60
2018-04-13T03:37:41.437Z,0.40
2018-04-13T03:38:44.004Z,0.30
2018-04-13T03:39:47.193Z,0.40
2018-04-13T03:40:49.690Z,0.40
2018-04-13T03:41:51.212Z,0.50
2018-04-13T03:42:52.600Z,0.40
2018-04-13T03:43:54.816Z,0.50
2018-04-13T03:44:56.241Z,0.50
2018-04-13T03:45:57.753Z,0.40
2018-04-13T03:46:59.292Z,0.40
2018-04-13T03:48:00.693Z,0.50
2018-04-13T03:49:38.925Z,0.40
2018-04-13T03:50:40.494Z,0.30
2018-04-13T03:53:24.305Z,0.50
2018-04-13T03:54:26.078Z,0.40
2018-04-13T03:55:29.258Z,0.50
2018-04-13T03:56:31.181Z,0.40
2018-04-13T03:57:33.564Z,0.30
2018-04-13T03:58:37.121Z,0.50
2018-04-13T03:59:38.682Z,0.40
2018-04-13T04:00:40.330Z,0.40
2018-04-13T04:09:43.269Z,0.70
2018-04-13T04:11:33.706Z,2.27
2018-04-13T04:14:33.724Z,2.50
2018-04-13T04:15:35.599Z,2.20
2018-04-13T04:16:37.484Z,1.53
2018-04-13T04:17:40.799Z,1.00
2018-04-13T04:20:35.103Z,3.53
2018-04-13T04:21:50.834Z,4.90
2018-04-13T04:23:11.918Z,4.10
2018-04-13T04:24:32.228Z,2.20
2018-04-13T04:34:19.024Z,1.47
2018-04-13T04:40:53.287Z,1.20
2018-04-13T04:41:55.194Z,1.00
2018-04-13T04:42:56.924Z,1.03
2018-04-13T04:47:37.452Z,0.90
2018-04-13T04:48:39.315Z,0.90
2018-04-13T04:50:55.217Z,0.83
2018-04-13T04:54:34.857Z,0.60
2018-04-13T04:58:25.108Z,0.90
2018-04-13T05:04:46.848Z,0.90
2018-04-13T05:05:48.693Z,0.90
2018-04-13T05:06:50.484Z,0.60
2018-04-13T05:09:38.281Z,0.60
2018-04-13T05:14:43.254Z,0.80
2018-04-13T05:15:47.600Z,0.70
2018-04-13T05:16:49.876Z,0.60
2018-04-13T05:17:56.878Z,0.40
2018-04-13T05:22:33.222Z,0.40
2018-04-13T05:24:12.908Z,0.60
2018-04-13T05:25:14.806Z,0.57
2018-04-13T05:26:36.718Z,0.50
2018-04-13T05:27:38.409Z,0.40
2018-04-13T05:32:23.863Z,0.50
2018-04-13T05:33:25.667Z,0.40
2018-04-13T05:37:06.887Z,0.50
2018-04-13T05:38:08.691Z,0.63
2018-04-13T05:39:10.660Z,0.57
2018-04-13T05:42:48.065Z,0.60
2018-04-13T05:44:38.401Z,0.60
2018-04-13T05:45:41.883Z,0.50
2018-04-13T05:53:07.630Z,0.50
2018-04-13T05:54:11.164Z,0.43
2018-04-13T05:55:13.046Z,0.50
2018-04-13T05:57:33.049Z,0.57
2018-04-13T05:58:35.208Z,0.53
2018-04-13T05:59:38.320Z,0.70
2018-04-13T06:03:18.810Z,0.67
2018-04-13T06:04:20.690Z,0.60
2018-04-13T06:15:37.926Z,0.60
2018-04-13T06:16:39.769Z,0.60
2018-04-13T06:17:43.280Z,0.60
2018-04-13T06:18:46.185Z,0.60
2018-04-13T06:19:49.500Z,0.60
2018-04-13T06:21:45.306Z,0.60
2018-04-13T06:22:48.207Z,0.53
2018-04-13T06:23:49.964Z,0.60
2018-04-13T06:27:29.638Z,0.60
2018-04-13T06:28:32.912Z,0.70
2018-04-13T06:29:35.097Z,0.50
2018-04-13T06:30:36.478Z,0.57
2018-04-13T06:31:37.906Z,0.60
2018-04-13T06:32:40.084Z,0.50
2018-04-13T06:33:43.001Z,0.47
2018-04-13T06:34:45.162Z,0.70
2018-04-13T06:35:48.040Z,0.70
2018-04-13T06:36:55.043Z,0.50
2018-04-13T06:37:52.580Z,0.73
2018-04-13T06:38:55.124Z,0.50
2018-04-13T06:39:59.108Z,0.50
2018-04-13T06:41:00.510Z,0.50
2018-04-13T06:42:01.913Z,0.50
2018-04-13T06:43:05.072Z,0.40
2018-04-13T06:44:08.156Z,0.47
2018-04-13T06:45:09.528Z,0.60
2018-04-13T06:46:10.932Z,0.50
2018-04-13T06:47:13.428Z,0.43
2018-04-13T06:48:14.844Z,0.40
2018-04-13T06:49:17.938Z,0.40
2018-04-13T06:50:20.441Z,0.40
2018-04-13T06:51:21.844Z,0.50
2018-04-13T06:52:23.224Z,0.50
2018-04-13T06:53:26.340Z,0.50
2018-04-13T06:54:28.505Z,0.50
2018-04-13T06:55:30.643Z,0.53
2018-04-13T06:56:33.505Z,0.50
2018-04-13T06:57:34.912Z,0.43
2018-04-13T06:58:36.328Z,0.50
2018-04-13T06:59:38.486Z,0.60
2018-04-13T07:00:41.596Z,0.60
2018-04-13T07:01:44.504Z,0.40
2018-04-13T07:05:03.681Z,0.40
2018-04-13T07:06:06.805Z,0.43
2018-04-13T07:07:08.259Z,0.60
2018-04-13T07:08:10.429Z,0.53
2018-04-13T07:09:13.524Z,0.53
2018-04-13T07:10:14.972Z,0.50
2018-04-13T07:11:16.373Z,0.40
2018-04-13T07:12:19.530Z,0.40
2018-04-13T07:13:20.990Z,0.50
2018-04-13T07:14:22.416Z,0.47
2018-04-13T07:15:25.556Z,0.50
2018-04-13T07:16:27.994Z,0.40
2018-04-13T07:17:29.388Z,0.70
2018-04-13T07:18:30.801Z,0.40
2018-04-13T07:19:32.931Z,0.40
2018-04-13T07:20:35.832Z,0.63
2018-04-13T07:21:37.243Z,0.33
2018-04-13T07:22:38.643Z,0.40
2018-04-13T07:23:40.788Z,0.40
2018-04-13T07:24:43.900Z,0.60
2018-04-13T07:25:45.385Z,0.70
2018-04-13T07:26:46.779Z,0.50
2018-04-13T07:27:49.873Z,0.40
2018-04-13T07:28:51.269Z,0.57
2018-04-13T07:29:52.685Z,0.50
2018-04-13T07:30:54.894Z,0.50
2018-04-13T07:31:56.409Z,0.40
2018-04-13T07:32:58.153Z,0.43
2018-04-13T07:33:59.700Z,0.47
2018-04-13T07:35:01.266Z,0.60
2018-04-13T07:36:03.100Z,0.50
2018-04-13T07:37:06.175Z,0.50
2018-04-13T07:38:09.346Z,0.50
2018-04-13T07:39:10.769Z,0.60
2018-04-13T07:40:12.881Z,0.63
2018-04-13T07:41:16.294Z,0.70
2018-04-13T07:42:19.384Z,0.50
2018-04-13T07:43:22.529Z,0.70
2018-04-13T07:44:25.031Z,0.40
2018-04-13T07:45:26.447Z,0.57
2018-04-13T07:46:28.249Z,0.60
2018-04-13T07:47:29.645Z,0.70
2018-04-13T07:48:31.048Z,0.50
2018-04-13T07:49:34.245Z,0.50
2018-04-13T07:50:35.601Z,0.40
2018-04-13T07:51:38.985Z,0.63
2018-04-13T07:52:41.105Z,0.57
2018-04-13T07:53:44.188Z,0.60
2018-04-13T07:54:45.587Z,0.50
2018-04-13T07:55:46.997Z,0.47
2018-04-13T07:56:50.127Z,0.50
2018-04-13T07:57:51.505Z,0.60
2018-04-13T07:58:54.625Z,0.40
2018-04-13T07:59:56.009Z,0.40
2018-04-13T08:00:58.197Z,0.43
2018-04-13T08:01:59.608Z,0.40
2018-04-13T08:03:02.706Z,0.50
2018-04-13T08:04:04.141Z,0.50
2018-04-13T08:05:06.269Z,0.57
2018-04-13T08:06:09.133Z,0.60
2018-04-13T08:07:12.282Z,0.50
2018-04-13T08:08:15.226Z,0.50
2018-04-13T08:09:18.109Z,0.40
2018-04-13T08:10:20.261Z,0.60
2018-04-13T08:11:23.359Z,0.40
2018-04-13T08:12:25.210Z,0.50
2018-04-13T08:13:28.125Z,0.50
2018-04-13T08:14:31.209Z,0.50
2018-04-13T08:15:34.536Z,0.60
2018-04-13T08:16:35.737Z,0.50
2018-04-13T08:17:37.148Z,0.60
2018-04-13T08:18:40.277Z,0.70
2018-04-13T08:19:41.677Z,0.60
2018-04-13T08:20:43.053Z,0.60
2018-04-13T08:21:45.185Z,0.53
2018-04-13T08:22:48.077Z,0.70
2018-04-13T08:23:51.175Z,0.93
2018-04-13T08:24:52.565Z,0.70
2018-04-13T08:25:53.969Z,0.60
2018-04-13T08:26:56.101Z,0.70
2018-04-13T08:27:58.265Z,0.50
2018-04-13T08:29:01.368Z,0.73
2018-04-13T08:30:03.550Z,0.70
2018-04-13T08:31:04.950Z,0.90
2018-04-13T08:32:08.125Z,0.50
2018-04-13T08:33:09.844Z,0.60
2018-04-13T08:34:11.234Z,0.50
2018-04-13T08:35:12.642Z,0.40
2018-04-13T08:36:14.099Z,0.50
2018-04-13T08:37:17.549Z,0.50
2018-04-13T08:38:20.353Z,0.60
2018-04-13T08:39:21.741Z,0.50
2018-04-13T08:40:24.825Z,0.80
2018-04-13T08:41:27.918Z,0.50
2018-04-13T08:42:31.049Z,0.60
2018-04-13T08:43:34.483Z,0.73
2018-04-13T08:44:37.893Z,0.60
2018-04-13T08:45:40.987Z,0.70
2018-04-13T08:46:44.087Z,0.70
2018-04-13T08:47:46.252Z,0.60
2018-04-13T08:48:47.705Z,1.10
2018-04-13T08:49:50.772Z,1.00
2018-04-13T08:50:53.261Z,0.63
2018-04-13T08:51:55.451Z,0.90
2018-04-13T08:52:56.833Z,0.60
2018-04-13T08:53:59.966Z,0.60
2018-04-13T08:55:03.079Z,0.70
2018-04-13T08:56:06.247Z,0.50
2018-04-13T08:57:07.610Z,0.63
2018-04-13T08:58:09.059Z,0.70
2018-04-13T08:59:12.175Z,0.80
2018-04-13T09:00:13.549Z,1.20
2018-04-13T09:01:16.643Z,1.20
2018-04-13T09:02:19.739Z,1.13
2018-04-13T09:03:21.133Z,0.53
2018-04-13T09:04:23.301Z,1.10
2018-04-13T09:05:26.434Z,0.80
2018-04-13T09:06:27.965Z,0.83
2018-04-13T09:07:29.548Z,0.70
2018-04-13T09:08:31.133Z,0.60
2018-04-13T09:09:34.343Z,0.83
2018-04-13T09:10:37.533Z,1.37
2018-04-13T09:11:40.651Z,1.43
2018-04-13T09:12:42.125Z,0.70
2018-04-13T09:13:45.270Z,1.00
2018-04-13T09:14:48.445Z,0.70
2018-04-13T09:15:51.389Z,0.90
2018-04-13T09:16:54.503Z,0.80
2018-04-13T09:17:57.421Z,0.90
2018-04-13T09:19:00.575Z,0.57
2018-04-13T09:20:02.042Z,0.60
2018-04-13T09:21:03.538Z,0.70
2018-04-13T09:22:04.970Z,0.60
2018-04-13T09:23:08.069Z,1.10
2018-04-13T09:24:11.887Z,1.10
2018-04-13T09:25:13.797Z,0.90
2018-04-13T09:26:15.404Z,1.27
2018-04-13T09:27:17.149Z,1.23
2018-04-13T09:28:18.763Z,1.30
2018-04-13T09:29:22.088Z,1.10
2018-04-13T09:30:24.125Z,1.33
2018-04-13T09:31:27.399Z,1.30
2018-04-13T09:32:30.735Z,1.27
2018-04-13T09:33:34.084Z,0.87
2018-04-13T09:34:35.931Z,0.70
2018-04-13T09:35:37.751Z,0.87
2018-04-13T09:36:39.323Z,0.77
2018-04-13T09:37:42.561Z,0.67
2018-04-13T09:38:44.167Z,0.60
2018-04-13T09:39:47.467Z,0.80
2018-04-13T09:40:49.178Z,0.80
2018-04-13T09:41:50.800Z,0.60
2018-04-13T09:42:52.360Z,0.73
2018-04-13T09:43:55.729Z,0.90
2018-04-13T09:44:57.322Z,0.73
2018-04-13T09:48:58.988Z,1.10
2018-04-13T09:50:02.465Z,1.07
2018-04-13T09:53:21.831Z,1.10
2018-04-13T09:54:23.583Z,1.00
2018-04-13T09:55:26.506Z,0.70
2018-04-13T09:56:29.904Z,0.83
2018-04-13T09:58:12.680Z,1.70
2018-04-13T09:59:14.570Z,1.10
2018-04-13T10:00:22.578Z,1.00
2018-04-13T10:01:24.260Z,0.80
2018-04-13T10:02:33.621Z,1.30
2018-04-13T10:03:43.162Z,1.53
2018-04-13T10:09:04.102Z,0.60
2018-04-13T10:10:05.940Z,0.60
2018-04-13T10:14:07.395Z,0.50
2018-04-13T10:15:10.853Z,0.60
2018-04-13T10:16:12.637Z,0.60
2018-04-13T10:19:48.579Z,3.60
2018-04-13T10:20:51.936Z,3.30
2018-04-13T10:21:53.592Z,3.00
2018-04-13T10:22:55.341Z,1.60
2018-04-13T10:23:58.745Z,1.13
2018-04-13T10:25:00.676Z,0.90
2018-04-13T10:26:02.470Z,0.60
2018-04-13T10:27:05.881Z,0.50
2018-04-13T10:28:23.591Z,0.60
2018-04-13T10:29:25.220Z,0.50
2018-04-13T10:30:26.797Z,0.70
2018-04-13T10:31:29.458Z,0.50
2018-04-13T10:32:32.924Z,0.60
2018-04-13T10:33:36.388Z,0.60
2018-04-13T10:39:58.929Z,0.57
2018-04-13T10:41:01.394Z,0.70
2018-04-13T10:42:02.977Z,0.60
2018-04-13T10:47:48.927Z,0.53
2018-04-13T10:56:21.780Z,0.83
2018-04-13T10:57:23.657Z,0.40
2018-04-13T11:04:29.983Z,0.50
2018-04-13T11:10:09.603Z,0.67
2018-04-13T11:20:17.338Z,0.50
2018-04-13T11:24:34.810Z,0.43
2018-04-13T11:31:04.626Z,0.40
2018-04-13T11:35:20.020Z,0.40
2018-04-13T11:41:54.366Z,0.40
2018-04-13T11:50:17.083Z,0.33
2018-04-13T11:51:20.488Z,0.40
2018-04-13T11:52:23.427Z,0.40
2018-04-13T11:57:19.946Z,0.50
2018-04-13T11:58:23.339Z,0.50
2018-04-13T12:07:48.954Z,0.40
2018-04-13T12:10:13.489Z,0.43
2018-04-13T12:11:35.110Z,0.60
2018-04-13T12:12:55.460Z,0.50
2018-04-13T12:13:57.240Z,0.40
2018-04-13T12:17:20.439Z,0.50
2018-04-13T12:20:46.446Z,0.70
2018-04-13T12:24:23.757Z,0.47
2018-04-13T12:25:25.505Z,0.43
2018-04-13T12:32:16.087Z,0.50
2018-04-13T12:34:40.220Z,0.40
2018-04-13T12:35:43.527Z,0.43
2018-04-13T12:36:45.315Z,0.50
2018-04-13T12:45:09.320Z,0.57
2018-04-13T12:46:53.615Z,0.80
2018-04-13T12:47:55.395Z,0.70
2018-04-13T12:48:57.204Z,0.90
2018-04-13T12:52:47.785Z,0.40
2018-04-13T12:55:10.590Z,0.50
2018-04-13T12:58:52.976Z,1.30
2018-04-13T13:01:15.512Z,0.70
2018-04-13T13:02:17.252Z,0.50
2018-04-13T13:11:14.352Z,0.43
2018-04-13T13:13:38.684Z,0.70
2018-04-13T13:14:42.107Z,0.43
2018-04-13T13:17:07.061Z,0.63
2018-04-13T13:18:10.548Z,0.40
2018-04-13T13:22:53.255Z,0.47
2018-04-13T13:23:54.976Z,0.70
2018-04-13T13:24:58.533Z,0.50
2018-04-13T13:27:42.373Z,0.50
2018-04-13T13:28:46.147Z,0.53
2018-04-13T13:29:49.466Z,0.50
2018-04-13T13:35:46.218Z,0.40
2018-04-13T13:36:49.442Z,0.57
2018-04-13T13:37:50.959Z,0.50
2018-04-13T13:38:54.207Z,0.53
2018-04-13T13:39:55.854Z,0.50
2018-04-13T13:40:57.489Z,0.60
2018-04-13T13:41:59.032Z,0.60
2018-04-13T13:43:00.776Z,0.40
2018-04-13T13:44:02.404Z,0.50
2018-04-13T13:45:04.086Z,0.40
2018-04-13T13:46:07.324Z,0.40
2018-04-13T13:47:10.775Z,0.57
2018-04-13T13:48:12.387Z,0.50
2018-04-13T13:49:13.994Z,0.77
2018-04-13T13:50:17.211Z,0.77
2018-04-13T13:51:18.764Z,0.50
2018-04-13T13:52:20.343Z,0.40
2018-04-13T13:53:23.468Z,0.40
2018-04-13T13:54:26.655Z,0.40
2018-04-13T13:56:45.346Z,0.77
2018-04-13T13:57:48.623Z,0.43
2018-04-13T13:58:50.408Z,0.70
2018-04-13T13:59:52.000Z,0.40
2018-04-13T14:00:54.507Z,0.50
2018-04-13T14:01:58.137Z,0.60
2018-04-13T14:03:01.651Z,0.57
2018-04-13T14:04:04.511Z,0.80
2018-04-13T14:07:46.452Z,0.60
2018-04-13T14:10:57.140Z,0.50
2018-04-13T14:12:25.672Z,0.60
2018-04-13T14:13:28.832Z,0.70
2018-04-13T14:14:30.684Z,0.50
2018-04-13T14:16:54.178Z,0.60
2018-04-13T14:17:56.015Z,0.63
2018-04-13T14:18:57.802Z,0.83
2018-04-13T14:20:01.246Z,0.80
2018-04-13T14:21:02.991Z,0.70
2018-04-13T14:22:06.429Z,0.80
2018-04-13T14:24:29.338Z,0.70
2018-04-13T14:25:32.795Z,0.60
2018-04-13T14:26:36.277Z,0.30
2018-04-13T14:30:39.079Z,0.50
2018-04-13T14:31:42.514Z,0.60
2018-04-13T14:32:44.296Z,0.60
2018-04-13T14:33:46.150Z,0.37
2018-04-13T14:34:49.402Z,0.70
2018-04-13T14:35:52.818Z,0.40
2018-04-13T14:36:56.241Z,0.40
2018-04-13T14:37:57.995Z,0.60
2018-04-13T14:39:00.636Z,0.80
2018-04-13T14:40:04.077Z,0.77
2018-04-13T14:42:29.412Z,0.50
2018-04-13T14:45:22.104Z,0.40
2018-04-13T14:46:39.076Z,0.40
2018-04-13T14:47:42.543Z,0.40
2018-04-13T14:48:44.274Z,0.40
2018-04-13T14:55:24.724Z,0.60
2018-04-13T14:57:48.498Z,0.50
2018-04-13T15:05:39.317Z,0.70
2018-04-13T15:06:42.795Z,0.60
2018-04-13T15:07:44.620Z,0.70
2018-04-13T15:08:46.410Z,0.93
2018-04-13T15:09:48.192Z,0.80
2018-04-13T15:10:51.399Z,0.97
2018-04-13T15:20:19.500Z,1.77
2018-04-13T15:21:21.382Z,1.60
2018-04-13T15:22:23.188Z,1.73
2018-04-13T15:23:25.104Z,1.80
2018-04-13T15:24:28.588Z,1.70
2018-04-13T15:25:32.071Z,1.57
2018-04-13T15:26:35.468Z,1.60
2018-04-13T15:27:37.406Z,1.40
2018-04-13T15:28:40.915Z,1.10
2018-04-13T15:29:44.344Z,1.10
2018-04-13T15:30:47.779Z,1.10
2018-04-13T15:34:51.584Z,0.90
2018-04-13T15:35:53.255Z,0.70
2018-04-13T15:36:56.669Z,0.90
2018-04-13T15:40:08.673Z,0.80
2018-04-13T15:42:39.688Z,0.83
2018-04-13T15:45:03.010Z,0.60
2018-04-13T15:46:06.682Z,0.60
2018-04-13T15:47:08.495Z,0.70
2018-04-13T15:48:11.942Z,0.70
2018-04-13T15:49:13.780Z,0.70
2018-04-13T15:50:17.327Z,0.90
2018-04-13T15:51:39.516Z,1.23
2018-04-13T15:52:42.984Z,0.97
2018-04-13T15:53:44.846Z,0.70
2018-04-13T15:54:48.249Z,1.10
2018-04-13T15:55:51.768Z,0.80
2018-04-13T15:56:54.951Z,0.90
2018-04-13T15:57:56.356Z,1.60
2018-04-13T15:58:59.524Z,1.30
2018-04-13T16:00:00.954Z,1.10
2018-04-13T16:01:02.790Z,1.30
2018-04-13T16:02:06.328Z,1.27
2018-04-13T16:03:09.777Z,1.00
2018-04-13T16:06:12.211Z,1.80
2018-04-13T16:07:43.319Z,1.23
2018-04-13T16:08:46.756Z,0.90
2018-04-13T16:09:50.215Z,1.03
2018-04-13T16:10:53.675Z,0.93
2018-04-13T16:11:57.182Z,0.90
2018-04-13T16:17:14.432Z,1.20
2018-04-13T16:19:36.305Z,0.87
2018-04-13T16:20:39.802Z,0.90
2018-04-13T16:22:10.877Z,0.80
2018-04-13T16:23:14.194Z,0.70
2018-04-13T16:24:17.666Z,1.10
2018-04-13T16:25:19.538Z,1.20
2018-04-13T16:26:23.047Z,1.10
2018-04-13T16:27:26.476Z,0.90
2018-04-13T16:28:29.966Z,0.90
2018-04-13T16:32:12.288Z,0.70
2018-04-13T16:33:15.862Z,0.70
2018-04-13T16:34:17.574Z,0.70
2018-04-13T16:37:40.992Z,0.80
2018-04-13T16:38:44.364Z,0.70
2018-04-13T16:39:47.836Z,0.57
2018-04-13T16:40:49.678Z,0.70
2018-04-13T16:41:53.139Z,0.60
2018-04-13T16:42:54.905Z,0.60
2018-04-13T16:44:41.040Z,0.80
2018-04-13T16:47:55.888Z,0.67
2018-04-13T16:50:32.797Z,0.60
2018-04-13T16:57:43.909Z,0.70
2018-04-13T16:58:48.471Z,0.77
2018-04-13T16:59:51.782Z,0.70
2018-04-13T17:00:55.284Z,0.70
2018-04-13T17:01:59.651Z,1.13
2018-04-13T17:03:03.822Z,1.00
2018-04-13T17:04:07.258Z,1.00
2018-04-13T17:09:02.015Z,1.00
2018-04-13T17:10:05.435Z,0.83
2018-04-13T17:11:08.811Z,0.80
2018-04-13T17:12:12.248Z,0.70
2018-04-13T17:13:14.091Z,0.80
2018-04-13T17:14:17.544Z,0.60
2018-04-13T17:17:13.489Z,0.50
2018-04-13T17:18:16.961Z,0.80
2018-04-13T17:19:18.814Z,0.80
2018-04-13T17:20:22.300Z,0.63
2018-04-13T17:21:25.743Z,0.60
2018-04-13T17:22:28.290Z,0.70
2018-04-13T17:24:22.761Z,0.67
2018-04-13T17:37:19.921Z,0.80
2018-04-13T17:38:40.032Z,0.87
2018-04-13T17:39:43.381Z,0.90
2018-04-13T17:43:30.165Z,1.20
2018-04-13T17:48:35.461Z,0.80
2018-04-13T17:52:33.105Z,0.80
2018-04-13T17:53:36.717Z,0.90
2018-04-13T17:55:07.009Z,1.33
2018-04-13T18:04:21.701Z,0.90
2018-04-13T18:07:33.841Z,1.10
2018-04-13T18:08:35.614Z,1.00
2018-04-13T18:09:39.254Z,1.10
2018-04-13T18:11:18.290Z,1.13
2018-04-13T18:12:20.011Z,1.40
2018-04-13T18:13:23.419Z,1.13
2018-04-13T18:14:25.356Z,1.00
2018-04-13T18:15:29.662Z,1.03
2018-04-13T18:16:32.234Z,1.00
2018-04-13T18:17:35.630Z,0.93
2018-04-13T18:18:39.094Z,1.00
2018-04-13T18:19:42.485Z,1.40
2018-04-13T18:20:44.364Z,1.07
2018-04-13T18:21:46.084Z,1.10
2018-04-13T18:34:03.495Z,0.87
2018-04-13T18:36:55.863Z,0.70
2018-04-13T18:39:17.723Z,0.80
2018-04-13T18:40:19.251Z,0.90
2018-04-13T18:41:20.906Z,0.90
2018-04-13T18:42:24.027Z,0.83
2018-04-13T18:43:25.620Z,0.83
2018-04-13T18:44:28.861Z,1.20
2018-04-13T18:45:30.456Z,0.93
2018-04-13T18:46:33.325Z,1.00
2018-04-13T18:47:34.969Z,0.83
2018-04-13T18:48:36.623Z,1.00
2018-04-13T18:49:38.210Z,0.97
2018-04-13T18:50:41.457Z,1.33
2018-04-13T18:51:43.058Z,1.00
2018-04-13T18:52:44.795Z,1.20
2018-04-13T18:56:27.359Z,2.13
2018-04-13T18:57:29.184Z,2.27
2018-04-13T18:58:32.639Z,1.87
2018-04-13T19:02:29.367Z,1.30
2018-04-13T19:09:53.387Z,2.50
2018-04-13T19:10:55.157Z,2.20
2018-04-13T19:11:58.745Z,1.90
2018-04-13T19:13:02.293Z,2.07
2018-04-13T19:14:04.287Z,2.00
2018-04-13T19:15:05.958Z,1.97
2018-04-13T19:16:07.481Z,2.20
2018-04-13T19:17:08.864Z,2.00
2018-04-13T19:18:12.055Z,2.27
2018-04-13T19:19:13.568Z,1.90
2018-04-13T19:20:16.815Z,4.40
2018-04-13T19:21:18.374Z,5.73
2018-04-13T19:22:20.052Z,4.93
2018-04-13T19:23:21.685Z,3.33
2018-04-13T19:24:23.280Z,2.50
2018-04-13T19:25:24.894Z,2.47
2018-04-13T19:26:27.166Z,2.50
2018-04-13T19:27:28.780Z,2.40
2018-04-13T19:28:32.102Z,2.80
2018-04-13T19:30:54.343Z,1.80
2018-04-13T19:31:57.859Z,1.50
2018-04-13T19:33:00.200Z,1.30
2018-04-13T19:34:59.341Z,1.50
2018-04-13T19:36:01.126Z,1.40
2018-04-13T19:37:04.656Z,1.30
2018-04-13T19:38:06.374Z,1.60
2018-04-13T19:39:08.206Z,1.70
2018-04-13T19:40:30.348Z,1.53
2018-04-13T19:41:32.298Z,1.60
2018-04-13T19:47:21.141Z,1.20
2018-04-13T19:48:22.874Z,1.47
2018-04-13T19:49:25.464Z,1.50
2018-04-13T19:50:29.172Z,1.20
2018-04-13T19:51:31.001Z,1.40
2018-04-13T19:55:13.638Z,1.27
2018-04-13T19:56:15.391Z,1.50
2018-04-13T19:57:17.063Z,1.20
2018-04-13T19:58:18.784Z,1.30
2018-04-13T20:01:59.293Z,1.17
2018-04-13T20:03:01.247Z,1.23
2018-04-13T20:10:12.720Z,1.00
2018-04-13T20:14:06.036Z,0.90
2018-04-13T20:15:09.498Z,0.90
2018-04-13T20:16:21.469Z,1.17
2018-04-13T20:33:56.648Z,1.30
2018-04-13T20:36:22.824Z,1.70
2018-04-13T20:37:26.118Z,1.60
2018-04-13T20:38:27.887Z,1.57
2018-04-13T20:39:31.419Z,1.63
2018-04-13T20:40:33.401Z,1.47
2018-04-13T20:44:32.225Z,2.10
2018-04-13T20:45:34.021Z,2.10
2018-04-13T20:46:35.894Z,2.20
2018-04-13T20:47:38.395Z,2.40
2018-04-13T20:50:04.941Z,2.17
2018-04-13T20:53:50.812Z,2.33
2018-04-13T20:55:08.380Z,2.40
2018-04-13T20:56:10.148Z,2.00
2018-04-13T20:57:35.784Z,2.23
2018-04-13T20:59:28.310Z,1.70
2018-04-13T21:01:19.678Z,1.60
2018-04-13T21:02:21.388Z,1.37
2018-04-13T21:06:47.416Z,1.20
2018-04-13T21:07:49.190Z,1.43
2018-04-13T21:11:07.339Z,1.30
2018-04-13T21:12:09.178Z,1.00
2018-04-13T21:18:03.189Z,1.20
2018-04-13T21:21:32.165Z,1.30
2018-04-13T21:23:14.407Z,1.27
2018-04-13T21:24:17.728Z,1.10
2018-04-13T21:25:19.372Z,1.13
2018-04-13T21:26:22.690Z,1.30
2018-04-13T21:27:24.382Z,1.50
2018-04-13T21:28:27.558Z,1.37
2018-04-13T21:36:22.438Z,1.30
2018-04-13T21:50:24.585Z,1.07
2018-04-13T21:58:50.871Z,1.03
2018-04-13T22:03:21.465Z,1.30
2018-04-13T22:04:23.072Z,1.00
2018-04-13T22:05:24.593Z,1.10
2018-04-13T22:06:26.236Z,1.60
2018-04-13T22:07:27.997Z,1.30
2018-04-13T22:08:30.465Z,1.30
2018-04-13T22:09:32.252Z,1.20
2018-04-13T22:10:34.057Z,1.00
2018-04-13T22:11:37.448Z,1.30
2018-04-13T22:12:58.683Z,1.37
2018-04-13T22:14:14.296Z,1.17
2018-04-13T22:15:25.600Z,1.30
2018-04-13T22:17:15.374Z,1.10
2018-04-13T22:18:18.761Z,1.40
2018-04-13T22:19:20.368Z,1.00
2018-04-13T22:20:23.719Z,1.10
2018-04-13T22:21:25.421Z,1.10
2018-04-13T22:29:27.610Z,1.30
2018-04-13T22:34:32.893Z,1.30
2018-04-13T22:43:01.869Z,0.97
2018-04-13T22:44:04.936Z,1.20
2018-04-13T22:45:54.124Z,1.17
2018-04-13T22:49:55.495Z,1.20
2018-04-13T22:50:57.507Z,1.20
2018-04-13T22:51:59.353Z,1.20
2018-04-13T22:53:02.571Z,1.20
2018-04-13T22:54:04.493Z,1.13